Time;durP1;ratioP1;P1;durP2;ratioP2;P2;SDS_P1;SDS_P2;PMS_P1;PMS_P2;Temp;Humidity;BMP_temperature;BMP_pressure;BME280_temperature;BME280_humidity;BME280_pressure;Samples;Min_cycle;Max_cycle;Signal;HPM_P1;HPM_P2
2023/04/09 00:00:15;;;;;;;5.03;4.60;;;9.50;72.10;;;;;;935869;150;27342;-78
2023/04/09 00:02:41;;;;;;;5.20;4.70;;;9.40;72.20;;;;;;934975;149;28188;-79
2023/04/09 00:05:08;;;;;;;5.00;4.47;;;9.40;72.40;;;;;;929616;153;27403;-78
2023/04/09 00:07:34;;;;;;;5.23;4.73;;;9.30;72.50;;;;;;934381;151;27314;-78
2023/04/09 00:10:01;;;;;;;5.90;5.30;;;9.30;72.60;;;;;;937818;151;27356;-78
2023/04/09 00:12:29;;;;;;;6.00;5.27;;;9.30;72.90;;;;;;936115;151;27763;-78
2023/04/09 00:14:54;;;;;;;6.00;5.40;;;9.30;73.00;;;;;;924167;151;27421;-79
2023/04/09 00:17:21;;;;;;;5.40;4.90;;;9.20;73.10;;;;;;924981;153;27359;-78
2023/04/09 00:19:47;;;;;;;6.47;5.87;;;9.20;73.20;;;;;;925665;151;27295;-78
2023/04/09 00:22:14;;;;;;;6.50;5.60;;;9.10;73.70;;;;;;936233;149;27846;-78
2023/04/09 00:24:41;;;;;;;6.83;5.90;;;9.10;73.40;;;;;;935127;149;27899;-78
2023/04/09 00:27:07;;;;;;;7.87;6.53;;;9.10;73.50;;;;;;926068;151;27367;-78
2023/04/09 00:29:34;;;;;;;7.17;6.33;;;9.00;73.60;;;;;;926796;153;27442;-79
2023/04/09 00:32:00;;;;;;;6.90;6.20;;;9.00;73.60;;;;;;927740;151;27356;-79
2023/04/09 00:34:27;;;;;;;6.37;5.70;;;8.90;73.80;;;;;;922776;152;27379;-78
2023/04/09 00:36:53;;;;;;;7.27;6.10;;;8.90;73.90;;;;;;911496;153;27360;-78
2023/04/09 00:39:20;;;;;;;5.83;5.23;;;8.80;73.90;;;;;;921039;150;27361;-78
2023/04/09 00:41:47;;;;;;;5.97;5.37;;;8.80;74.20;;;;;;929485;149;27443;-79
2023/04/09 00:44:13;;;;;;;6.23;5.63;;;8.70;74.20;;;;;;929120;149;27366;-78
2023/04/09 00:46:40;;;;;;;6.23;5.63;;;8.70;74.40;;;;;;928919;149;27929;-78
2023/04/09 00:49:06;;;;;;;5.97;5.27;;;8.60;74.60;;;;;;936307;148;28863;-79
2023/04/09 00:51:33;;;;;;;7.07;5.70;;;8.60;74.70;;;;;;937472;147;27311;-78
2023/04/09 00:54:00;;;;;;;6.00;5.40;;;8.50;74.80;;;;;;917854;150;27308;-78
2023/04/09 00:56:26;;;;;;;6.47;5.83;;;8.50;75.00;;;;;;929415;149;27361;-79
2023/04/09 00:58:53;;;;;;;7.20;5.93;;;8.50;75.10;;;;;;927854;149;27370;-78
2023/04/09 01:01:19;;;;;;;7.43;6.53;;;8.40;75.20;;;;;;929594;149;27482;-79
2023/04/09 01:03:46;;;;;;;7.73;6.60;;;8.40;75.40;;;;;;928463;149;27366;-78
2023/04/09 01:06:31;;;;;;;7.07;6.37;;;8.30;75.50;;;;;;929096;149;27442;-79
2023/04/09 01:09:19;;;;;;;5.93;5.33;;;8.30;75.60;;;;;;929479;149;27429;-79
2023/04/09 01:12:01;;;;;;;6.10;5.47;;;8.20;75.60;;;;;;936404;148;27461;-79
2023/04/09 01:14:37;;;;;;;6.20;5.60;;;8.20;75.70;;;;;;936454;148;27326;-79
2023/04/09 01:17:04;;;;;;;5.97;5.37;;;8.10;75.80;;;;;;928477;149;27346;-79
2023/04/09 01:19:45;;;;;;;6.90;5.83;;;8.00;75.90;;;;;;928353;149;27415;-79
2023/04/09 01:22:21;;;;;;;6.00;5.23;;;8.00;76.10;;;;;;928671;149;27415;-78
2023/04/09 01:24:48;;;;;;;7.20;5.60;;;7.90;76.10;;;;;;901441;153;27458;-79
2023/04/09 01:27:15;;;;;;;6.17;5.57;;;7.90;76.20;;;;;;918495;150;27458;-78
2023/04/09 01:29:44;;;;;;;6.63;5.17;;;7.80;76.40;;;;;;928407;149;27312;-78
2023/04/09 01:32:10;;;;;;;5.73;5.13;;;7.80;76.50;;;;;;927664;149;27334;-79
2023/04/09 01:34:37;;;;;;;6.00;5.40;;;7.80;76.70;;;;;;928871;149;27259;-78
2023/04/09 01:37:04;;;;;;;7.77;5.90;;;7.70;76.70;;;;;;940819;148;27408;-78
2023/04/09 01:39:30;;;;;;;6.40;5.57;;;7.70;76.90;;;;;;922568;152;27453;-78
2023/04/09 01:41:57;;;;;;;7.60;6.00;;;7.70;77.20;;;;;;937554;150;27311;-78
2023/04/09 01:44:23;;;;;;;6.07;5.40;;;7.70;77.40;;;;;;943605;148;27309;-78
2023/04/09 01:46:50;;;;;;;5.70;5.10;;;7.70;77.60;;;;;;943874;148;27363;-78
2023/04/09 01:49:17;;;;;;;5.93;5.33;;;7.60;77.70;;;;;;943800;148;27778;-78
2023/04/09 01:51:43;;;;;;;5.80;5.20;;;7.60;77.80;;;;;;939457;150;27310;-78
2023/04/09 01:54:10;;;;;;;6.03;5.03;;;7.60;77.80;;;;;;943205;148;27768;-78
2023/04/09 01:56:42;;;;;;;6.43;5.17;;;7.50;78.60;;;;;;943782;148;27358;-78
2023/04/09 01:59:09;;;;;;;6.33;5.13;;;7.50;77.90;;;;;;938241;150;27474;-78
2023/04/09 02:01:35;;;;;;;6.10;5.47;;;7.50;78.00;;;;;;925924;152;27489;-79
2023/04/09 02:04:02;;;;;;;6.83;6.13;;;7.40;77.90;;;;;;938865;150;27364;-78
2023/04/09 02:06:34;;;;;;;6.90;5.53;;;7.40;77.90;;;;;;939690;150;27346;-78
2023/04/09 02:09:01;;;;;;;5.50;4.80;;;7.30;78.10;;;;;;935283;150;27413;-79
2023/04/09 02:11:27;;;;;;;6.17;4.90;;;7.30;78.50;;;;;;938916;150;27362;-78
2023/04/09 02:13:54;;;;;;;6.23;4.93;;;7.30;78.40;;;;;;937925;150;27400;-78
2023/04/09 02:16:21;;;;;;;6.33;5.73;;;7.30;78.70;;;;;;938683;150;27271;-78
2023/04/09 02:18:47;;;;;;;6.80;5.50;;;7.30;79.00;;;;;;939278;150;27451;-79
2023/04/09 02:21:14;;;;;;;6.07;5.43;;;7.30;79.00;;;;;;943780;148;27453;-78
2023/04/09 02:23:40;;;;;;;6.20;5.60;;;7.30;79.20;;;;;;943564;148;27266;-78
2023/04/09 02:26:07;;;;;;;6.43;5.40;;;7.20;79.30;;;;;;927383;150;27322;-78
2023/04/09 02:28:34;;;;;;;6.63;5.40;;;7.20;79.40;;;;;;927009;150;27413;-78
2023/04/09 02:31:00;;;;;;;6.37;5.30;;;7.20;79.60;;;;;;927185;150;27388;-78
2023/04/09 02:33:27;;;;;;;6.07;5.43;;;7.20;79.70;;;;;;930834;149;27851;-78
2023/04/09 02:35:53;;;;;;;6.47;5.00;;;7.20;80.00;;;;;;948428;150;27351;-78
2023/04/09 02:38:20;;;;;;;5.67;5.10;;;7.20;80.10;;;;;;943306;148;27446;-78
2023/04/09 02:40:46;;;;;;;6.67;5.27;;;7.30;80.30;;;;;;933078;149;27379;-77
2023/04/09 02:43:13;;;;;;;5.77;5.07;;;7.30;80.40;;;;;;944858;147;27354;-77
2023/04/09 02:45:40;;;;;;;5.07;4.57;;;7.30;80.60;;;;;;928761;150;27708;-78
2023/04/09 02:48:06;;;;;;;5.30;4.80;;;7.30;80.70;;;;;;937707;150;27357;-77
2023/04/09 02:50:33;;;;;;;7.10;5.60;;;7.40;80.90;;;;;;937968;150;27265;-77
2023/04/09 02:52:59;;;;;;;5.57;5.00;;;7.40;80.90;;;;;;943549;148;27935;-78
2023/04/09 02:55:26;;;;;;;6.33;5.67;;;7.50;81.00;;;;;;937597;150;27411;-78
2023/04/09 02:57:53;;;;;;;6.80;5.70;;;7.50;81.00;;;;;;938821;150;27403;-77
2023/04/09 03:00:19;;;;;;;7.30;6.47;;;7.50;80.90;;;;;;943890;148;27427;-78
2023/04/09 03:02:46;;;;;;;6.53;5.90;;;7.60;81.00;;;;;;940900;149;27460;-78
2023/04/09 03:05:12;;;;;;;5.53;5.03;;;7.60;81.00;;;;;;941216;149;27361;-77
2023/04/09 03:07:39;;;;;;;6.00;4.97;;;7.70;81.10;;;;;;942969;148;27413;-78
2023/04/09 03:10:05;;;;;;;5.97;5.37;;;7.70;81.00;;;;;;943389;148;27302;-78
2023/04/09 03:12:32;;;;;;;4.67;4.27;;;7.70;80.80;;;;;;926054;151;27322;-77
2023/04/09 03:14:59;;;;;;;5.67;5.17;;;7.80;80.70;;;;;;944733;149;27490;-77
2023/04/09 03:17:26;;;;;;;5.73;5.10;;;7.80;80.50;;;;;;943884;149;27453;-77
2023/04/09 03:19:52;;;;;;;4.67;4.27;;;7.80;80.50;;;;;;943206;148;27325;-78
2023/04/09 03:22:18;;;;;;;5.77;5.17;;;7.80;80.30;;;;;;944305;148;27846;-78
2023/04/09 03:24:45;;;;;;;5.63;5.03;;;7.80;80.30;;;;;;948244;147;27321;-77
2023/04/09 03:27:12;;;;;;;5.87;5.20;;;7.80;80.30;;;;;;944713;148;27309;-77
2023/04/09 03:29:38;;;;;;;6.10;5.50;;;7.80;79.80;;;;;;943502;148;27339;-77
2023/04/09 03:32:05;;;;;;;5.93;4.77;;;7.80;80.20;;;;;;943743;148;27328;-77
2023/04/09 03:34:31;;;;;;;5.73;5.13;;;7.80;80.10;;;;;;931192;150;27369;-77
2023/04/09 03:36:58;;;;;;;5.13;4.63;;;7.80;80.10;;;;;;943299;148;27356;-77
2023/04/09 03:39:25;;;;;;;6.33;5.70;;;7.80;80.10;;;;;;928133;149;27342;-78
2023/04/09 03:41:51;;;;;;;5.40;4.90;;;7.80;80.30;;;;;;927346;153;27327;-78
2023/04/09 03:44:18;;;;;;;6.53;5.53;;;7.80;80.20;;;;;;930992;152;28157;-78
2023/04/09 03:46:44;;;;;;;7.33;5.13;;;7.80;80.30;;;;;;943029;149;27810;-78
2023/04/09 03:49:11;;;;;;;5.77;5.27;;;7.80;80.40;;;;;;941611;149;27345;-78
2023/04/09 03:51:37;;;;;;;6.03;4.80;;;7.80;80.50;;;;;;928816;151;27351;-77
2023/04/09 03:54:04;;;;;;;5.60;5.00;;;7.80;80.60;;;;;;939718;151;27407;-78
2023/04/09 03:56:31;;;;;;;5.73;5.23;;;7.90;80.70;;;;;;927055;152;27310;-78
2023/04/09 03:58:57;;;;;;;5.37;4.87;;;7.90;80.80;;;;;;928624;153;27473;-78
2023/04/09 04:01:24;;;;;;;5.77;5.17;;;7.90;80.90;;;;;;938985;149;27399;-78
2023/04/09 04:03:50;;;;;;;6.30;5.30;;;7.90;80.90;;;;;;928838;153;27313;-77
2023/04/09 04:06:17;;;;;;;7.93;5.53;;;7.90;80.90;;;;;;939136;151;27271;-77
2023/04/09 04:08:43;;;;;;;6.47;5.87;;;7.90;80.80;;;;;;926670;152;27771;-77
2023/04/09 04:11:10;;;;;;;7.87;6.50;;;7.90;80.80;;;;;;925138;154;27443;-78
2023/04/09 04:13:37;;;;;;;6.07;5.47;;;7.90;80.80;;;;;;920946;155;27787;-78
2023/04/09 04:16:03;;;;;;;5.83;5.33;;;7.90;80.90;;;;;;940917;151;27282;-77
2023/04/09 04:18:30;;;;;;;6.07;5.40;;;7.90;81.00;;;;;;940234;151;27364;-77
2023/04/09 04:20:56;;;;;;;6.30;5.67;;;7.90;81.00;;;;;;941576;151;27350;-78
2023/04/09 04:23:23;;;;;;;6.03;5.43;;;7.90;81.00;;;;;;937972;149;27342;-78
2023/04/09 04:25:51;;;;;;;6.23;5.50;;;7.90;81.10;;;;;;923859;152;27280;-78
2023/04/09 04:28:16;;;;;;;5.60;5.10;;;7.90;81.10;;;;;;923376;153;27435;-78
2023/04/09 04:30:43;;;;;;;6.07;5.47;;;7.90;81.20;;;;;;946479;148;27404;-78
2023/04/09 04:33:09;;;;;;;6.37;5.67;;;7.90;81.30;;;;;;939180;149;27785;-78
2023/04/09 04:35:36;;;;;;;6.00;5.40;;;7.90;81.30;;;;;;940227;152;27426;-78
2023/04/09 04:38:03;;;;;;;6.00;5.40;;;7.90;81.40;;;;;;927200;151;27349;-78
2023/04/09 04:40:29;;;;;;;5.70;5.20;;;7.90;81.50;;;;;;929612;151;27378;-78
2023/04/09 04:42:56;;;;;;;5.93;5.33;;;7.90;81.60;;;;;;925441;154;27391;-78
2023/04/09 04:45:22;;;;;;;6.10;5.27;;;7.90;81.70;;;;;;918411;151;27477;-78
2023/04/09 04:47:49;;;;;;;5.90;5.30;;;7.90;81.70;;;;;;928433;153;27326;-78
2023/04/09 04:50:15;;;;;;;6.37;5.53;;;7.90;81.80;;;;;;939524;152;27353;-78
2023/04/09 04:52:42;;;;;;;6.80;5.37;;;7.90;81.90;;;;;;940413;149;27503;-78
2023/04/09 04:55:09;;;;;;;6.60;6.00;;;7.90;82.10;;;;;;924684;154;27878;-78
2023/04/09 04:57:35;;;;;;;6.77;5.40;;;7.90;82.40;;;;;;925112;152;27420;-78
2023/04/09 05:00:02;;;;;;;7.17;5.13;;;8.00;82.30;;;;;;942521;149;27387;-78
2023/04/09 05:02:28;;;;;;;6.07;5.47;;;7.90;82.40;;;;;;941136;149;27313;-78
2023/04/09 05:04:55;;;;;;;5.87;5.27;;;8.00;82.50;;;;;;928285;153;27475;-78
2023/04/09 05:07:22;;;;;;;6.33;5.67;;;8.00;82.50;;;;;;927776;152;28020;-78
2023/04/09 05:09:48;;;;;;;5.53;5.03;;;8.00;82.70;;;;;;940511;152;27324;-78
2023/04/09 05:12:16;;;;;;;6.77;6.07;;;8.10;82.60;;;;;;941056;152;27258;-77
2023/04/09 05:14:41;;;;;;;7.57;5.93;;;8.10;82.70;;;;;;941872;151;27436;-79
2023/04/09 05:17:08;;;;;;;6.70;5.63;;;8.10;82.70;;;;;;923518;154;27335;-78
2023/04/09 05:19:34;;;;;;;6.10;5.50;;;8.10;82.70;;;;;;940698;151;27395;-77
2023/04/09 05:22:01;;;;;;;6.20;5.60;;;8.20;82.80;;;;;;922575;154;27340;-78
2023/04/09 05:24:28;;;;;;;5.77;5.13;;;8.20;82.80;;;;;;929201;154;27465;-78
2023/04/09 05:26:54;;;;;;;6.63;5.43;;;8.20;82.80;;;;;;943006;151;27376;-78
2023/04/09 05:29:21;;;;;;;7.63;5.83;;;8.20;82.80;;;;;;926613;151;27786;-78
2023/04/09 05:31:47;;;;;;;6.27;5.67;;;8.30;82.90;;;;;;942031;149;27258;-79
2023/04/09 05:34:14;;;;;;;6.10;5.50;;;8.30;82.90;;;;;;929161;151;27330;-79
2023/04/09 05:36:41;;;;;;;6.60;5.93;;;8.40;82.90;;;;;;927073;152;27471;-79
2023/04/09 05:39:07;;;;;;;7.00;6.20;;;8.40;82.90;;;;;;935694;148;27321;-79
2023/04/09 05:41:36;;;;;;;6.40;5.80;;;8.40;83.00;;;;;;932627;151;27859;-79
2023/04/09 05:44:00;;;;;;;7.27;6.10;;;8.50;83.20;;;;;;905612;154;27360;-79
2023/04/09 05:46:27;;;;;;;7.33;6.03;;;8.50;83.20;;;;;;900699;153;27427;-77
2023/04/09 05:48:54;;;;;;;7.63;6.70;;;8.50;83.20;;;;;;896503;155;27474;-78
2023/04/09 05:51:20;;;;;;;9.83;6.20;;;8.60;83.30;;;;;;911450;154;27407;-78
2023/04/09 05:53:47;;;;;;;7.07;6.37;;;8.60;83.30;;;;;;893865;156;27947;-78
2023/04/09 05:56:14;;;;;;;7.17;6.40;;;8.70;83.50;;;;;;899100;154;27319;-79
2023/04/09 05:58:40;;;;;;;7.57;6.87;;;8.70;83.50;;;;;;893317;155;27459;-78
2023/04/09 06:01:06;;;;;;;7.93;6.50;;;8.80;83.50;;;;;;930029;149;27390;-78
2023/04/09 06:03:33;;;;;;;6.63;6.00;;;8.90;83.60;;;;;;931807;149;27344;-78
2023/04/09 06:06:00;;;;;;;6.57;5.97;;;8.90;83.50;;;;;;909740;153;27278;-78
2023/04/09 06:08:26;;;;;;;7.27;6.57;;;9.00;83.50;;;;;;899836;154;27523;-78
2023/04/09 06:10:53;;;;;;;8.33;7.17;;;9.00;83.50;;;;;;908113;155;27503;-78
2023/04/09 06:13:20;;;;;;;6.93;6.17;;;9.10;83.50;;;;;;908656;155;27391;-78
2023/04/09 06:15:46;;;;;;;7.43;6.63;;;9.20;83.40;;;;;;909436;154;27434;-78
2023/04/09 06:18:12;;;;;;;7.67;6.97;;;9.30;83.40;;;;;;911199;154;27534;-79
2023/04/09 06:20:40;;;;;;;8.03;7.10;;;9.30;83.20;;;;;;912869;154;27409;-79
2023/04/09 06:23:06;;;;;;;7.70;6.90;;;9.40;83.20;;;;;;912607;154;27400;-79
2023/04/09 06:25:32;;;;;;;8.13;7.30;;;9.50;83.40;;;;;;908323;155;27388;-78
2023/04/09 06:27:59;;;;;;;7.00;6.30;;;9.60;83.20;;;;;;908146;155;27339;-79
2023/04/09 06:30:25;;;;;;;7.87;7.00;;;9.70;83.30;;;;;;935626;149;27462;-79
2023/04/09 06:32:52;;;;;;;8.73;7.43;;;9.80;83.20;;;;;;931842;149;27934;-79
2023/04/09 06:35:19;;;;;;;7.40;6.70;;;9.90;83.20;;;;;;930822;149;27303;-79
2023/04/09 06:37:45;;;;;;;7.90;7.00;;;10.00;83.20;;;;;;930447;149;27419;-79
2023/04/09 06:40:12;;;;;;;9.37;7.47;;;10.10;83.20;;;;;;927733;147;27404;-79
2023/04/09 06:42:38;;;;;;;10.73;8.23;;;10.20;83.20;;;;;;927503;150;27835;-79
2023/04/09 06:45:08;;;;;;;7.77;6.97;;;10.30;83.20;;;;;;941045;149;27403;-79
2023/04/09 06:47:34;;;;;;;8.50;7.60;;;10.40;83.00;;;;;;940315;149;27458;-79
2023/04/09 06:50:01;;;;;;;8.67;7.77;;;10.60;82.80;;;;;;926924;150;27427;-79
2023/04/09 06:52:27;;;;;;;9.73;8.10;;;10.70;82.50;;;;;;941926;148;27349;-79
2023/04/09 06:54:54;;;;;;;9.10;8.20;;;10.90;82.40;;;;;;944023;148;27339;-79
2023/04/09 06:57:20;;;;;;;8.37;7.57;;;11.00;82.20;;;;;;948000;147;27735;-79
2023/04/09 06:59:47;;;;;;;8.50;7.70;;;11.10;81.90;;;;;;948422;147;27327;-79
2023/04/09 07:02:14;;;;;;;9.77;8.73;;;11.30;81.60;;;;;;928339;150;27379;-79
2023/04/09 07:04:40;;;;;;;9.47;8.50;;;11.40;81.30;;;;;;943411;148;27371;-79
2023/04/09 07:07:07;;;;;;;9.23;8.23;;;11.60;81.10;;;;;;937649;150;27851;-79
2023/04/09 07:09:33;;;;;;;8.93;8.03;;;11.80;81.00;;;;;;944435;148;27383;-79
2023/04/09 07:12:00;;;;;;;9.67;7.90;;;11.90;80.80;;;;;;943411;148;27328;-79
2023/04/09 07:14:27;;;;;;;8.45;7.55;;;12.10;80.60;;;;;;940705;149;27560;-80
2023/04/09 07:16:53;;;;;;;9.13;7.97;;;12.30;80.40;;;;;;941046;149;27339;-79
2023/04/09 07:19:20;;;;;;;8.93;8.00;;;12.40;80.00;;;;;;942296;149;27274;-78
2023/04/09 07:21:46;;;;;;;8.80;7.78;;;12.60;79.60;;;;;;943285;148;27318;-78
2023/04/09 07:24:13;;;;;;;8.80;7.90;;;12.80;79.10;;;;;;943456;148;27352;-78
2023/04/09 07:26:40;;;;;;;8.63;7.83;;;12.90;78.80;;;;;;939501;149;27436;-78
2023/04/09 07:29:06;;;;;;;8.20;7.40;;;13.10;78.50;;;;;;939636;149;27306;-78
2023/04/09 07:31:33;;;;;;;9.10;8.20;;;13.30;78.40;;;;;;942529;148;27312;-78
2023/04/09 07:33:59;;;;;;;8.35;7.60;;;13.50;78.00;;;;;;939453;149;27514;-78
2023/04/09 07:36:26;;;;;;;9.00;7.87;;;13.70;77.50;;;;;;941347;149;27501;-78
2023/04/09 07:38:52;;;;;;;8.78;7.90;;;13.90;77.20;;;;;;940633;149;27372;-78
2023/04/09 07:41:19;;;;;;;9.10;7.90;;;14.10;76.10;;;;;;945798;147;27373;-78
2023/04/09 07:43:46;;;;;;;8.90;8.10;;;14.30;76.60;;;;;;931409;150;27414;-77
2023/04/09 07:46:12;;;;;;;7.75;6.95;;;14.50;76.30;;;;;;940462;149;27365;-78
2023/04/09 07:48:39;;;;;;;7.87;7.08;;;14.70;76.00;;;;;;940565;149;27469;-78
2023/04/09 07:51:05;;;;;;;8.25;7.45;;;15.00;75.80;;;;;;942709;148;27395;-78
2023/04/09 07:53:32;;;;;;;8.38;7.37;;;15.20;75.50;;;;;;924140;151;27328;-78
2023/04/09 07:55:59;;;;;;;8.95;7.37;;;15.40;74.90;;;;;;942649;148;27336;-78
2023/04/09 07:58:25;;;;;;;7.70;7.03;;;15.70;74.50;;;;;;941146;149;27937;-78
2023/04/09 08:00:52;;;;;;;8.30;7.50;;;15.90;74.20;;;;;;940831;149;27306;-78
2023/04/09 08:03:19;;;;;;;8.13;7.33;;;16.10;73.90;;;;;;940547;149;27294;-78
2023/04/09 08:05:45;;;;;;;8.05;7.03;;;16.40;73.60;;;;;;940638;149;27309;-78
2023/04/09 08:08:12;;;;;;;8.28;7.45;;;16.70;73.30;;;;;;943483;148;27448;-78
2023/04/09 08:10:38;;;;;;;8.60;7.80;;;17.00;72.50;;;;;;942809;148;27414;-78
2023/04/09 08:13:05;;;;;;;7.58;6.95;;;17.30;71.90;;;;;;947242;147;27304;-78
2023/04/09 08:15:31;;;;;;;8.88;7.97;;;17.60;71.30;;;;;;922526;150;27444;-78
2023/04/09 08:17:58;;;;;;;8.23;7.42;;;17.90;70.70;;;;;;928117;149;27512;-78
2023/04/09 08:21:12;;;;;;;8.03;7.22;;;18.10;70.30;;;;;;943302;148;27353;-78
2023/04/09 08:23:38;;;;;;;7.83;7.12;;;18.50;69.80;;;;;;925946;150;27355;-77
2023/04/09 08:26:05;;;;;;;7.85;6.95;;;18.90;69.20;;;;;;939389;149;27335;-78
2023/04/09 08:28:32;;;;;;;8.23;7.42;;;19.10;67.70;;;;;;940413;149;27865;-79
2023/04/09 08:30:58;;;;;;;7.12;6.42;;;19.30;66.80;;;;;;940439;149;27381;-77
2023/04/09 08:33:25;;;;;;;7.80;7.10;;;19.50;66.10;;;;;;942703;148;27314;-79
2023/04/09 08:35:51;;;;;;;7.97;7.28;;;19.70;65.50;;;;;;926937;150;27426;-79
2023/04/09 08:38:18;;;;;;;7.53;6.62;;;19.90;65.00;;;;;;921040;151;27567;-79
2023/04/09 08:40:45;;;;;;;7.45;6.75;;;20.20;64.40;;;;;;927726;150;27424;-80
2023/04/09 08:43:11;;;;;;;7.85;6.80;;;20.40;64.30;;;;;;938375;149;27408;-79
2023/04/09 08:45:38;;;;;;;7.30;6.67;;;20.70;64.20;;;;;;940191;149;27298;-79
2023/04/09 08:48:04;;;;;;;7.92;7.22;;;21.10;64.00;;;;;;940547;149;27360;-79
2023/04/09 08:50:32;;;;;;;6.90;6.30;;;21.60;64.50;;;;;;940873;151;27337;-79
2023/04/09 08:52:58;;;;;;;7.30;6.60;;;22.30;66.10;;;;;;922966;152;27501;-79
2023/04/09 08:55:24;;;;;;;6.33;5.72;;;23.10;66.10;;;;;;925037;151;27354;-79
2023/04/09 08:57:51;;;;;;;6.75;6.15;;;24.10;65.30;;;;;;928483;152;27628;-79
2023/04/09 09:00:17;;;;;;;6.72;6.20;;;25.10;63.20;;;;;;922510;151;27359;-79
2023/04/09 09:03:05;;;;;;;6.72;6.22;;;26.10;61.50;;;;;;923857;152;27366;-79
2023/04/09 09:05:35;;;;;;;7.08;6.45;;;26.90;59.10;;;;;;940080;149;27498;-79
2023/04/09 09:08:02;;;;;;;6.60;6.10;;;27.60;56.80;;;;;;927767;151;27319;-80
2023/04/09 09:10:43;;;;;;;6.80;6.20;;;28.00;55.30;;;;;;940198;152;27349;-78
2023/04/09 09:13:21;;;;;;;7.00;6.50;;;28.10;53.80;;;;;;925979;154;27352;-78
2023/04/09 09:15:51;;;;;;;6.53;6.03;;;28.10;52.30;;;;;;941769;151;27766;-78
2023/04/09 09:18:15;;;;;;;6.87;6.28;;;27.90;51.10;;;;;;941069;149;27373;-78
2023/04/09 09:20:41;;;;;;;7.15;6.55;;;27.60;50.70;;;;;;944592;149;27289;-79
2023/04/09 09:23:08;;;;;;;7.45;6.85;;;27.30;50.20;;;;;;924062;151;27386;-78
2023/04/09 09:25:40;;;;;;;6.42;5.83;;;27.00;50.00;;;;;;923122;153;27375;-78
2023/04/09 09:28:10;;;;;;;8.43;7.72;;;26.70;50.10;;;;;;943983;149;27300;-79
2023/04/09 09:30:37;;;;;;;7.47;6.87;;;26.50;50.10;;;;;;936508;149;27394;-78
2023/04/09 09:33:08;;;;;;;6.40;5.90;;;26.30;50.30;;;;;;923369;152;27372;-78
2023/04/09 09:35:50;;;;;;;6.47;5.95;;;26.30;50.50;;;;;;940759;148;27357;-79
2023/04/09 09:38:17;;;;;;;6.45;5.90;;;26.40;51.30;;;;;;926885;151;27327;-80
2023/04/09 09:40:43;;;;;;;5.62;5.20;;;26.60;51.50;;;;;;926001;152;27484;-79
2023/04/09 09:43:09;;;;;;;6.37;5.78;;;26.90;51.50;;;;;;939773;148;27382;-79
2023/04/09 09:45:37;;;;;;;6.12;5.62;;;27.20;51.50;;;;;;927279;152;27482;-79
2023/04/09 09:48:03;;;;;;;6.47;5.97;;;27.60;50.80;;;;;;943160;149;27344;-78
2023/04/09 09:50:29;;;;;;;6.97;6.45;;;27.70;49.60;;;;;;927580;154;27317;-77
2023/04/09 09:52:58;;;;;;;5.75;5.33;;;27.90;48.80;;;;;;927215;152;27330;-77
2023/04/09 09:55:25;;;;;;;5.67;5.28;;;28.00;47.90;;;;;;925354;151;27361;-78
2023/04/09 09:57:52;;;;;;;5.87;5.37;;;27.90;47.60;;;;;;925887;151;27244;-78
2023/04/09 10:00:24;;;;;;;6.25;5.75;;;27.70;46.80;;;;;;925285;151;27325;-77
2023/04/09 10:02:45;;;;;;;5.97;5.45;;;27.40;46.00;;;;;;924698;151;27383;-77
2023/04/09 10:05:11;;;;;;;6.78;6.17;;;27.00;45.40;;;;;;924150;152;27351;-78
2023/04/09 10:07:38;;;;;;;5.83;5.33;;;26.50;45.20;;;;;;925156;154;27384;-79
2023/04/09 10:10:04;;;;;;;6.05;5.55;;;26.00;44.40;;;;;;925729;153;27418;-77
2023/04/09 10:12:31;;;;;;;6.42;5.85;;;25.40;44.60;;;;;;942574;149;27299;-79
2023/04/09 10:15:03;;;;;;;6.15;5.65;;;24.90;45.00;;;;;;940960;151;27419;-79
2023/04/09 10:17:25;;;;;;;6.45;5.87;;;24.30;45.30;;;;;;939206;149;27431;-79
2023/04/09 10:20:12;;;;;;;6.42;5.80;;;23.80;45.40;;;;;;926999;153;27416;-78
2023/04/09 10:22:39;;;;;;;5.85;5.35;;;23.30;45.80;;;;;;924714;152;27432;-78
2023/04/09 10:25:05;;;;;;;5.87;5.47;;;22.80;46.00;;;;;;933568;151;27364;-78
2023/04/09 10:27:32;;;;;;;5.67;5.08;;;22.30;46.30;;;;;;928816;151;27387;-79
2023/04/09 10:30:01;;;;;;;5.90;5.40;;;21.90;46.60;;;;;;929639;153;27337;-78
2023/04/09 10:32:28;;;;;;;6.87;6.28;;;21.50;46.70;;;;;;926792;153;27430;-78
2023/04/09 10:34:58;;;;;;;5.72;5.22;;;21.10;47.20;;;;;;932275;152;27423;-79
2023/04/09 10:37:24;;;;;;;6.20;5.60;;;20.70;47.40;;;;;;940893;149;27854;-78
2023/04/09 10:39:51;;;;;;;6.20;5.60;;;20.40;47.70;;;;;;928016;153;27666;-77
2023/04/09 10:42:26;;;;;;;6.65;6.05;;;20.00;48.00;;;;;;942527;149;27381;-78
2023/04/09 10:45:05;;;;;;;4.97;4.58;;;19.70;48.30;;;;;;941531;152;27389;-78
2023/04/09 10:47:33;;;;;;;6.08;5.35;;;19.50;48.90;;;;;;941492;149;27317;-77
2023/04/09 10:49:59;;;;;;;5.45;4.90;;;19.30;49.40;;;;;;940464;148;27337;-78
2023/04/09 10:52:26;;;;;;;5.80;5.30;;;19.20;49.60;;;;;;940638;148;27812;-78
2023/04/09 10:54:53;;;;;;;5.45;4.95;;;19.10;49.80;;;;;;943389;148;27461;-79
2023/04/09 10:57:20;;;;;;;5.28;4.83;;;19.10;50.20;;;;;;927627;150;27323;-78
2023/04/09 10:59:48;;;;;;;5.35;4.87;;;19.10;50.10;;;;;;927512;150;27335;-79
2023/04/09 11:02:39;;;;;;;5.55;5.03;;;19.20;50.50;;;;;;940439;149;27466;-78
2023/04/09 11:05:18;;;;;;;5.08;4.67;;;19.30;50.50;;;;;;941176;149;27372;-78
2023/04/09 11:07:44;;;;;;;4.65;4.28;;;19.40;50.30;;;;;;940633;149;27373;-79
2023/04/09 11:10:11;;;;;;;4.50;4.20;;;19.50;50.20;;;;;;939369;149;27467;-78
2023/04/09 11:12:38;;;;;;;5.45;4.97;;;19.70;49.80;;;;;;941293;149;27297;-78
2023/04/09 11:15:04;;;;;;;5.20;4.80;;;19.70;49.40;;;;;;940569;149;27369;-78
2023/04/09 11:17:31;;;;;;;5.47;4.97;;;19.80;49.20;;;;;;940769;149;27370;-78
2023/04/09 11:19:57;;;;;;;5.80;5.25;;;19.80;49.20;;;;;;941231;149;27287;-78
2023/04/09 11:22:24;;;;;;;5.50;5.00;;;19.80;49.30;;;;;;939948;149;27253;-78
2023/04/09 11:24:50;;;;;;;5.22;4.78;;;19.80;49.50;;;;;;941256;149;27353;-78
2023/04/09 11:27:20;;;;;;;4.30;4.00;;;19.80;49.50;;;;;;941252;149;27911;-78
2023/04/09 11:29:44;;;;;;;5.10;4.70;;;20.00;49.80;;;;;;942127;148;27257;-78
2023/04/09 11:32:10;;;;;;;5.00;4.60;;;20.10;49.60;;;;;;942777;148;27329;-78
2023/04/09 11:34:37;;;;;;;4.92;4.53;;;20.20;49.30;;;;;;942999;148;27409;-78
2023/04/09 11:37:07;;;;;;;5.15;4.75;;;20.40;49.20;;;;;;948814;147;27409;-78
2023/04/09 11:39:30;;;;;;;4.72;4.33;;;20.50;49.10;;;;;;927540;150;27471;-79
2023/04/09 11:41:57;;;;;;;4.62;4.25;;;20.60;48.90;;;;;;927237;150;27424;-78
2023/04/09 11:44:23;;;;;;;5.25;4.60;;;20.70;48.90;;;;;;940723;148;27476;-78
2023/04/09 11:46:50;;;;;;;4.40;4.00;;;20.70;48.60;;;;;;940829;150;27295;-78
2023/04/09 11:49:16;;;;;;;5.03;4.62;;;20.80;48.20;;;;;;922562;151;27363;-79
2023/04/09 11:51:43;;;;;;;5.10;4.70;;;20.80;47.70;;;;;;926322;154;27450;-78
2023/04/09 11:54:10;;;;;;;4.92;4.53;;;20.80;47.40;;;;;;929107;152;27441;-78
2023/04/09 11:56:36;;;;;;;5.10;4.65;;;20.70;47.10;;;;;;935027;151;27406;-78
2023/04/09 11:59:03;;;;;;;4.12;3.83;;;20.60;47.10;;;;;;935621;151;27301;-78
2023/04/09 12:01:32;;;;;;;4.70;4.30;;;20.40;46.80;;;;;;945050;151;27376;-78
2023/04/09 12:03:59;;;;;;;4.50;4.05;;;20.30;46.90;;;;;;943262;151;27727;-78
2023/04/09 12:06:25;;;;;;;4.62;4.22;;;20.10;47.00;;;;;;930039;150;27326;-78
2023/04/09 12:08:58;;;;;;;4.72;4.33;;;20.00;47.20;;;;;;932469;151;27377;-78
2023/04/09 12:11:27;;;;;;;4.70;4.30;;;19.90;47.40;;;;;;935370;151;27473;-78
2023/04/09 12:14:01;;;;;;;4.37;4.03;;;19.80;47.50;;;;;;928807;151;27436;-79
2023/04/09 12:16:26;;;;;;;4.25;3.85;;;19.80;47.70;;;;;;941378;151;27352;-80
2023/04/09 12:18:54;;;;;;;3.98;3.67;;;19.80;47.90;;;;;;940864;152;27299;-79
2023/04/09 12:21:19;;;;;;;4.40;4.00;;;19.80;47.70;;;;;;940535;151;27353;-79
2023/04/09 12:23:46;;;;;;;4.00;3.65;;;19.90;47.60;;;;;;927111;153;27434;-79
2023/04/09 12:26:13;;;;;;;4.30;4.00;;;19.90;47.60;;;;;;930936;154;27320;-79
2023/04/09 12:28:40;;;;;;;4.53;4.12;;;19.90;47.60;;;;;;926925;151;27295;-78
2023/04/09 12:31:06;;;;;;;4.10;3.77;;;20.00;47.60;;;;;;925731;152;27343;-79
2023/04/09 12:33:32;;;;;;;4.72;4.30;;;20.00;47.50;;;;;;939621;149;27413;-78
2023/04/09 12:35:59;;;;;;;4.33;3.92;;;20.10;47.40;;;;;;944650;151;27381;-78
2023/04/09 12:38:26;;;;;;;3.87;3.58;;;20.10;47.10;;;;;;944581;151;27404;-78
2023/04/09 12:40:52;;;;;;;4.58;4.17;;;20.00;46.60;;;;;;942758;152;27316;-79
2023/04/09 12:43:19;;;;;;;4.10;3.70;;;20.00;46.60;;;;;;944481;146;27349;-78
2023/04/09 12:45:45;;;;;;;4.65;4.25;;;20.00;46.90;;;;;;949465;148;27498;-79
2023/04/09 12:48:12;;;;;;;3.85;3.55;;;19.90;46.70;;;;;;952949;146;27284;-79
2023/04/09 12:50:39;;;;;;;4.70;4.28;;;19.90;46.80;;;;;;948303;148;27335;-79
2023/04/09 12:53:05;;;;;;;4.47;4.08;;;19.80;46.70;;;;;;940906;149;27404;-79